createdAt,value
2018-09-29T00:02:05.013Z,9.20
2018-09-29T00:04:33.972Z,12.60
2018-09-29T00:07:03.532Z,9.80
2018-09-29T00:09:32.508Z,9.60
2018-09-29T00:12:01.475Z,13.03
2018-09-29T00:14:30.257Z,9.17
2018-09-29T00:16:59.348Z,7.93
2018-09-29T00:19:28.498Z,10.90
2018-09-29T00:21:57.413Z,8.33
2018-09-29T00:24:28.021Z,7.73
2018-09-29T00:26:57.146Z,7.20
2018-09-29T00:29:26.090Z,9.47
2018-09-29T00:31:55.525Z,7.20
2018-09-29T00:34:25.105Z,7.27
2018-09-29T00:36:54.122Z,7.03
2018-09-29T00:39:23.117Z,6.40
2018-09-29T00:41:52.069Z,8.67
2018-09-29T00:44:21.692Z,12.23
2018-09-29T00:46:51.318Z,8.47
2018-09-29T00:49:20.231Z,7.63
2018-09-29T00:51:49.284Z,9.97
2018-09-29T00:54:18.634Z,5.10
2018-09-29T00:56:47.492Z,11.67
2018-09-29T00:59:16.290Z,7.00
2018-09-29T01:01:45.296Z,5.77
2018-09-29T01:04:14.049Z,6.10
2018-09-29T01:06:42.978Z,6.27
2018-09-29T01:09:12.056Z,7.30
2018-09-29T01:11:41.156Z,6.70
2018-09-29T01:14:10.728Z,6.07
2018-09-29T01:16:39.693Z,7.80
2018-09-29T01:19:08.737Z,8.10
2018-09-29T01:21:38.084Z,5.63
2018-09-29T01:24:07.280Z,6.83
2018-09-29T01:26:36.520Z,5.17
2018-09-29T01:29:05.811Z,8.63
2018-09-29T01:31:34.936Z,5.93
2018-09-29T01:34:03.924Z,8.90
2018-09-29T01:36:32.770Z,6.77
2018-09-29T01:39:02.725Z,11.33
2018-09-29T01:41:31.780Z,11.80
2018-09-29T01:44:01.245Z,6.60
2018-09-29T01:46:30.314Z,8.43
2018-09-29T01:48:59.339Z,8.87
2018-09-29T01:51:28.901Z,7.83
2018-09-29T01:53:57.625Z,11.60
2018-09-29T01:56:26.448Z,6.63
2018-09-29T01:58:55.404Z,9.83
2018-09-29T02:01:24.780Z,5.73
2018-09-29T02:03:54.066Z,10.67
2018-09-29T02:06:23.007Z,10.40
2018-09-29T02:08:52.497Z,10.00
2018-09-29T02:11:22.203Z,7.23
2018-09-29T02:13:50.981Z,9.33
2018-09-29T02:16:20.019Z,9.57
2018-09-29T02:18:49.488Z,8.23
2018-09-29T02:21:18.520Z,6.77
2018-09-29T02:23:47.268Z,9.17
2018-09-29T02:26:16.565Z,6.40
2018-09-29T02:28:45.403Z,5.53
2018-09-29T02:31:14.602Z,9.90
2018-09-29T02:33:43.637Z,12.40
2018-09-29T02:36:12.936Z,7.20
2018-09-29T02:38:41.760Z,8.80
2018-09-29T02:41:10.550Z,10.80
2018-09-29T02:43:39.473Z,10.80
2018-09-29T02:46:08.446Z,10.30
2018-09-29T02:48:37.256Z,8.73
2018-09-29T02:51:06.271Z,10.93
2018-09-29T02:53:35.144Z,7.53
2018-09-29T02:56:03.908Z,6.90
2018-09-29T02:58:32.943Z,11.47
2018-09-29T03:01:02.381Z,6.73
2018-09-29T03:03:31.137Z,8.20
2018-09-29T03:05:59.958Z,8.90
2018-09-29T03:08:28.936Z,13.47
2018-09-29T03:10:58.064Z,13.27
2018-09-29T03:13:27.359Z,12.00
2018-09-29T03:15:56.248Z,8.10
2018-09-29T03:18:25.093Z,11.00
2018-09-29T03:20:54.030Z,6.77
2018-09-29T03:23:23.424Z,10.20
2018-09-29T03:25:52.341Z,11.67
2018-09-29T03:28:21.766Z,5.03
2018-09-29T03:30:50.483Z,11.13
2018-09-29T03:33:19.254Z,10.97
2018-09-29T03:35:48.015Z,9.20
2018-09-29T03:38:16.918Z,8.90
2018-09-29T03:40:46.658Z,10.40
2018-09-29T03:43:16.194Z,12.40
2018-09-29T03:45:45.195Z,7.83
2018-09-29T03:48:14.252Z,8.73
2018-09-29T03:50:43.116Z,9.80
2018-09-29T03:53:12.034Z,11.63
2018-09-29T03:55:40.880Z,10.80
2018-09-29T03:58:10.323Z,9.80
2018-09-29T04:00:39.708Z,8.27
2018-09-29T04:03:08.488Z,11.23
2018-09-29T04:05:37.346Z,7.13
2018-09-29T04:08:06.371Z,8.63
2018-09-29T04:10:35.259Z,9.23
2018-09-29T04:13:04.670Z,8.27
2018-09-29T04:15:33.619Z,12.73
2018-09-29T04:18:02.386Z,9.30
2018-09-29T04:20:31.550Z,8.53
2018-09-29T04:23:00.420Z,8.20
2018-09-29T04:25:29.156Z,10.73
2018-09-29T04:27:58.224Z,8.03
2018-09-29T04:30:39.445Z,12.80
2018-09-29T04:33:08.331Z,11.07
2018-09-29T04:35:47.371Z,9.70
2018-09-29T04:38:16.636Z,10.37
2018-09-29T04:40:45.574Z,7.33
2018-09-29T04:43:36.653Z,7.50
2018-09-29T04:46:10.564Z,10.27
2018-09-29T04:48:52.641Z,11.70
2018-09-29T04:51:44.182Z,7.33
2018-09-29T04:54:13.370Z,6.30
2018-09-29T04:56:42.208Z,9.60
2018-09-29T04:59:11.948Z,10.53
2018-09-29T05:01:40.837Z,12.57
2018-09-29T05:04:10.453Z,12.63
2018-09-29T05:06:39.551Z,8.93
2018-09-29T05:09:09.331Z,4.70
2018-09-29T05:11:39.965Z,9.40
2018-09-29T05:14:08.879Z,11.65
2018-09-29T05:16:37.843Z,11.60
2018-09-29T05:19:07.085Z,11.48
2018-09-29T05:21:35.973Z,7.93
2018-09-29T05:24:04.891Z,7.53
2018-09-29T05:26:35.405Z,9.93
2018-09-29T05:29:04.441Z,9.77
2018-09-29T05:31:35.634Z,9.60
2018-09-29T05:34:04.489Z,9.63
2018-09-29T05:36:33.331Z,6.97
2018-09-29T05:39:02.318Z,7.83
2018-09-29T05:41:32.085Z,9.95
2018-09-29T05:44:01.529Z,10.97
2018-09-29T05:46:31.312Z,8.17
2018-09-29T05:49:01.092Z,5.90
2018-09-29T05:51:30.034Z,9.93
2018-09-29T05:53:58.923Z,11.80
2018-09-29T05:56:27.775Z,8.27
2018-09-29T05:58:57.420Z,10.00
2018-09-29T06:01:26.387Z,11.60
2018-09-29T06:03:55.523Z,12.00
2018-09-29T06:06:24.819Z,7.57
2018-09-29T06:11:48.205Z,8.37
2018-09-29T06:14:17.070Z,8.50
2018-09-29T06:16:46.003Z,7.83
2018-09-29T06:19:14.959Z,9.93
2018-09-29T06:21:45.512Z,10.97
2018-09-29T06:24:14.239Z,6.00
2018-09-29T06:26:43.031Z,9.23
2018-09-29T06:29:12.108Z,6.23
2018-09-29T06:31:41.057Z,9.43
2018-09-29T06:34:09.930Z,5.87
2018-09-29T06:36:38.920Z,6.73
2018-09-29T06:39:10.053Z,7.83
2018-09-29T06:41:39.249Z,9.30
2018-09-29T06:44:08.681Z,7.83
2018-09-29T06:46:37.782Z,13.53
2018-09-29T06:49:06.811Z,7.70
2018-09-29T06:51:35.712Z,8.93
2018-09-29T06:54:05.732Z,7.83
2018-09-29T06:56:35.156Z,6.97
2018-09-29T06:59:04.011Z,10.03
2018-09-29T07:01:32.989Z,11.13
2018-09-29T07:04:01.840Z,6.50
2018-09-29T07:06:30.710Z,9.90
2018-09-29T07:08:59.915Z,13.67
2018-09-29T07:11:29.008Z,6.13
2018-09-29T07:13:58.212Z,7.90
2018-09-29T07:16:27.097Z,7.83
2018-09-29T07:18:55.937Z,10.10
2018-09-29T07:21:24.873Z,9.37
2018-09-29T07:23:53.675Z,7.47
2018-09-29T07:26:22.522Z,14.93
2018-09-29T07:28:51.569Z,6.53
2018-09-29T07:31:20.704Z,7.63
2018-09-29T07:33:51.060Z,11.60
2018-09-29T07:36:20.224Z,10.73
2018-09-29T07:38:49.164Z,11.40
2018-09-29T07:41:18.669Z,5.90
2018-09-29T07:43:47.484Z,8.10
2018-09-29T07:46:16.340Z,10.03
2018-09-29T07:48:45.281Z,7.50
2018-09-29T07:51:14.709Z,10.17
2018-09-29T07:53:43.656Z,7.87
2018-09-29T07:56:13.306Z,7.83
2018-09-29T07:58:42.238Z,57.47
2018-09-29T08:01:11.129Z,16.10
2018-09-29T08:03:40.801Z,12.10
2018-09-29T08:06:09.800Z,19.00
2018-09-29T08:08:39.048Z,7.23
2018-09-29T08:11:08.050Z,9.47
2018-09-29T08:13:36.934Z,6.97
2018-09-29T08:16:05.826Z,6.40
2018-09-29T08:18:35.055Z,14.57
2018-09-29T08:21:04.011Z,6.97
2018-09-29T08:23:32.983Z,6.60
2018-09-29T08:26:02.877Z,8.03
2018-09-29T08:28:31.644Z,5.30
2018-09-29T08:31:00.511Z,12.53
2018-09-29T08:33:29.540Z,5.10
2018-09-29T08:35:58.756Z,7.87
2018-09-29T08:38:27.884Z,9.43
2018-09-29T08:40:56.779Z,10.50
2018-09-29T08:43:26.341Z,6.60
2018-09-29T08:45:55.532Z,5.47
2018-09-29T08:48:24.342Z,14.13
2018-09-29T08:50:53.217Z,5.80
2018-09-29T08:53:22.241Z,5.90
2018-09-29T08:55:51.447Z,6.40
2018-09-29T08:58:20.355Z,6.20
2018-09-29T09:00:50.148Z,9.27
2018-09-29T09:03:19.102Z,7.50
2018-09-29T09:05:48.104Z,7.10
2018-09-29T09:08:16.945Z,9.03
2018-09-29T09:10:46.254Z,9.50
2018-09-29T09:13:15.108Z,6.90
2018-09-29T09:15:44.049Z,8.40
2018-09-29T09:18:13.200Z,6.33
2018-09-29T09:20:42.857Z,6.50
2018-09-29T09:23:11.976Z,9.70
2018-09-29T09:25:40.812Z,4.60
2018-09-29T09:28:10.417Z,9.17
2018-09-29T09:30:39.619Z,5.70
2018-09-29T09:33:08.481Z,6.43
2018-09-29T09:35:37.253Z,6.47
2018-09-29T09:38:06.289Z,13.53
2018-09-29T09:40:35.213Z,8.50
2018-09-29T09:43:03.970Z,7.67
2018-09-29T09:45:33.057Z,5.53
2018-09-29T09:48:02.084Z,7.73
2018-09-29T09:50:30.840Z,6.13
2018-09-29T09:52:59.825Z,7.33
2018-09-29T09:55:28.630Z,7.77
2018-09-29T09:57:58.239Z,7.77
2018-09-29T10:00:32.288Z,6.70
2018-09-29T10:03:07.573Z,5.00
2018-09-29T10:05:36.582Z,7.53
2018-09-29T10:08:05.899Z,4.83
2018-09-29T10:10:35.114Z,6.17
2018-09-29T10:13:05.308Z,7.00
2018-09-29T10:15:34.391Z,5.40
2018-09-29T10:18:03.603Z,6.20
2018-09-29T10:20:32.766Z,6.33
2018-09-29T10:23:13.054Z,7.97
2018-09-29T10:25:42.176Z,5.90
2018-09-29T10:28:11.206Z,9.50
2018-09-29T10:30:40.437Z,6.70
2018-09-29T10:33:13.632Z,7.37
2018-09-29T10:35:45.684Z,6.50
2018-09-29T10:38:15.094Z,7.73
2018-09-29T10:40:49.151Z,6.60
2018-09-29T10:43:19.466Z,7.13
2018-09-29T10:45:48.599Z,6.50
2018-09-29T10:48:17.522Z,7.57
2018-09-29T10:50:47.330Z,7.73
2018-09-29T10:53:16.202Z,9.03
2018-09-29T10:55:45.121Z,8.53
2018-09-29T10:58:14.014Z,8.53
2018-09-29T11:00:43.432Z,8.00
2018-09-29T11:03:12.283Z,8.47
2018-09-29T11:05:41.328Z,7.40
2018-09-29T11:08:10.243Z,8.40
2018-09-29T11:10:42.376Z,10.07
2018-09-29T11:13:11.136Z,8.67
2018-09-29T11:15:40.134Z,9.77
2018-09-29T11:18:09.080Z,11.37
2018-09-29T11:20:37.851Z,10.83
2018-09-29T11:23:07.039Z,6.70
2018-09-29T11:25:36.112Z,8.13
2018-09-29T11:28:05.400Z,6.90
2018-09-29T11:30:34.227Z,6.27
2018-09-29T11:33:03.015Z,7.17
2018-09-29T11:35:32.044Z,7.13
2018-09-29T11:38:01.327Z,7.43
2018-09-29T11:40:30.516Z,7.40
2018-09-29T11:42:59.357Z,6.73
2018-09-29T11:45:28.141Z,8.60
2018-09-29T11:47:57.194Z,6.73
2018-09-29T11:50:26.513Z,10.07
2018-09-29T11:52:55.325Z,9.13
2018-09-29T11:55:24.087Z,7.97
2018-09-29T11:57:53.303Z,8.13
2018-09-29T12:00:22.197Z,6.83
2018-09-29T12:02:51.207Z,8.70
2018-09-29T12:05:20.037Z,6.77
2018-09-29T12:07:49.065Z,5.90
2018-09-29T12:10:18.009Z,5.70
2018-09-29T12:12:47.468Z,6.40
2018-09-29T12:15:16.347Z,4.63
2018-09-29T12:17:45.202Z,6.17
2018-09-29T12:20:14.016Z,5.80
2018-09-29T12:22:43.043Z,11.53
2018-09-29T12:25:11.886Z,4.07
2018-09-29T12:27:40.889Z,5.40
2018-09-29T12:30:10.567Z,4.87
2018-09-29T12:32:39.392Z,8.47
2018-09-29T12:35:08.231Z,5.70
2018-09-29T12:37:37.134Z,7.13
2018-09-29T12:40:06.269Z,4.83
2018-09-29T12:42:39.915Z,5.90
2018-09-29T12:45:08.752Z,8.10
2018-09-29T12:47:37.643Z,7.20
2018-09-29T12:50:09.944Z,9.03
2018-09-29T12:52:38.700Z,6.43
2018-09-29T12:55:08.143Z,5.83
2018-09-29T12:57:37.024Z,4.30
2018-09-29T13:00:06.805Z,4.83
2018-09-29T13:02:35.785Z,8.27
2018-09-29T13:05:05.136Z,8.63
2018-09-29T13:07:34.092Z,7.33
2018-09-29T13:10:03.187Z,7.73
2018-09-29T13:12:32.045Z,6.40
2018-09-29T13:15:06.277Z,5.07
2018-09-29T13:17:36.224Z,4.20
2018-09-29T13:20:10.847Z,6.80
2018-09-29T13:22:40.347Z,9.07
2018-09-29T13:25:10.285Z,5.00
2018-09-29T13:27:39.097Z,5.87
2018-09-29T13:30:08.099Z,4.70
2018-09-29T13:32:37.281Z,7.97
2018-09-29T13:35:06.152Z,4.73
2018-09-29T13:37:35.151Z,6.40
2018-09-29T13:40:04.060Z,7.57
2018-09-29T13:42:32.923Z,4.20
2018-09-29T13:45:01.656Z,6.67
2018-09-29T13:47:34.636Z,5.30
2018-09-29T13:50:03.515Z,6.20
2018-09-29T13:52:32.349Z,7.63
2018-09-29T13:55:01.253Z,8.07
2018-09-29T13:57:30.159Z,5.67
2018-09-29T13:59:59.864Z,7.63
2018-09-29T14:02:28.954Z,6.70
2018-09-29T14:04:57.753Z,7.23
2018-09-29T14:07:27.322Z,7.47
2018-09-29T14:09:56.201Z,8.07
2018-09-29T14:12:24.994Z,5.73
2018-09-29T14:14:53.925Z,9.60
2018-09-29T14:17:22.813Z,5.57
2018-09-29T14:19:52.267Z,6.23
2018-09-29T14:22:21.105Z,5.40
2018-09-29T14:24:49.906Z,6.37
2018-09-29T14:27:20.448Z,7.70
2018-09-29T14:29:49.448Z,6.47
2018-09-29T14:32:18.690Z,13.60
2018-09-29T14:34:47.517Z,4.97
2018-09-29T14:37:16.309Z,9.73
2018-09-29T14:39:46.367Z,10.00
2018-09-29T14:42:15.229Z,7.23
2018-09-29T14:44:56.699Z,8.63
2018-09-29T14:47:25.732Z,7.87
2018-09-29T14:49:54.702Z,8.80
2018-09-29T14:52:24.387Z,6.80
2018-09-29T14:54:53.089Z,10.50
2018-09-29T14:57:22.066Z,10.73
2018-09-29T14:59:51.013Z,8.50
2018-09-29T15:02:20.085Z,6.03
2018-09-29T15:04:49.102Z,6.73
2018-09-29T15:07:18.200Z,6.57
2018-09-29T15:09:47.075Z,5.90
2018-09-29T15:12:16.030Z,7.73
2018-09-29T15:14:44.902Z,12.27
2018-09-29T15:17:13.564Z,10.40
2018-09-29T15:19:42.743Z,8.20
2018-09-29T15:22:11.828Z,9.73
2018-09-29T15:24:40.809Z,8.37
2018-09-29T15:27:09.629Z,8.07
2018-09-29T15:29:50.438Z,8.80
2018-09-29T15:32:19.542Z,11.17
2018-09-29T15:34:48.822Z,8.67
2018-09-29T15:37:17.999Z,9.50
2018-09-29T15:39:46.880Z,7.50
2018-09-29T15:42:16.697Z,6.97
2018-09-29T15:44:47.091Z,7.43
2018-09-29T15:47:16.702Z,10.53
2018-09-29T15:49:46.226Z,10.20
2018-09-29T15:52:15.245Z,11.03
2018-09-29T15:54:44.351Z,7.07
2018-09-29T15:57:13.790Z,10.30
2018-09-29T15:59:42.900Z,16.00
2018-09-29T16:02:11.800Z,8.50
2018-09-29T16:04:53.421Z,10.57
2018-09-29T16:10:16.109Z,10.57
2018-09-29T16:12:45.184Z,7.90
2018-09-29T16:15:14.372Z,10.93
2018-09-29T16:17:43.614Z,13.10
2018-09-29T16:20:12.812Z,13.73
2018-09-29T16:22:41.655Z,20.10
2018-09-29T16:25:10.603Z,8.53
2018-09-29T16:27:39.692Z,14.20
2018-09-29T16:30:08.911Z,12.00
2018-09-29T16:32:37.904Z,8.30
2018-09-29T16:35:06.999Z,16.13
2018-09-29T16:37:36.558Z,11.53
2018-09-29T16:40:05.714Z,16.83
2018-09-29T16:42:44.768Z,10.63
2018-09-29T16:45:13.799Z,11.43
2018-09-29T16:47:42.807Z,11.43
2018-09-29T16:50:11.597Z,11.40
2018-09-29T16:52:40.653Z,15.00
2018-09-29T16:55:09.781Z,9.40
2018-09-29T16:57:38.752Z,11.10
2018-09-29T17:00:07.644Z,12.80
2018-09-29T17:02:37.117Z,12.93
2018-09-29T17:05:05.940Z,9.80
2018-09-29T17:07:35.414Z,10.53
2018-09-29T17:10:04.292Z,16.20
2018-09-29T17:12:33.167Z,12.83
2018-09-29T17:15:02.266Z,9.03
2018-09-29T17:17:31.142Z,10.03
2018-09-29T17:20:00.209Z,13.37
2018-09-29T17:22:29.079Z,9.90
2018-09-29T17:24:58.106Z,9.43
2018-09-29T17:27:26.981Z,8.00
2018-09-29T17:29:55.938Z,11.60
2018-09-29T17:32:25.268Z,9.97
2018-09-29T17:34:54.331Z,14.83
2018-09-29T17:37:23.313Z,9.40
2018-09-29T17:39:52.872Z,9.37
2018-09-29T17:42:21.870Z,10.20
2018-09-29T17:44:51.481Z,10.03
2018-09-29T17:47:20.619Z,10.87
2018-09-29T17:49:49.577Z,15.97
2018-09-29T17:52:18.486Z,9.57
2018-09-29T17:54:47.931Z,8.80
2018-09-29T17:57:17.051Z,7.17
2018-09-29T17:59:45.947Z,11.90
2018-09-29T18:02:15.028Z,12.40
2018-09-29T18:04:44.048Z,11.70
2018-09-29T18:07:13.171Z,6.63
2018-09-29T18:09:42.020Z,9.90
2018-09-29T18:12:11.751Z,12.93
2018-09-29T18:14:41.247Z,9.90
2018-09-29T18:17:10.328Z,19.40
2018-09-29T18:19:39.190Z,10.47
2018-09-29T18:22:08.073Z,14.93
2018-09-29T18:24:37.005Z,10.83
2018-09-29T18:27:06.257Z,9.30
2018-09-29T18:29:35.101Z,12.13
2018-09-29T18:32:03.938Z,8.70
2018-09-29T18:34:32.945Z,10.37
2018-09-29T18:37:02.594Z,9.77
2018-09-29T18:39:31.491Z,10.47
2018-09-29T18:42:00.507Z,12.07
2018-09-29T18:44:29.468Z,7.90
2018-09-29T18:46:58.368Z,10.87
2018-09-29T18:49:27.254Z,9.33
2018-09-29T18:51:56.402Z,8.03
2018-09-29T18:54:31.647Z,10.87
2018-09-29T18:57:00.722Z,10.10
2018-09-29T18:59:30.561Z,11.47
2018-09-29T19:01:59.356Z,13.63
2018-09-29T19:04:28.531Z,10.70
2018-09-29T19:06:57.368Z,9.40
2018-09-29T19:09:26.250Z,9.53
2018-09-29T19:11:56.300Z,12.40
2018-09-29T19:14:25.127Z,8.83
2018-09-29T19:16:54.307Z,9.73
2018-09-29T19:19:23.872Z,10.30
2018-09-29T19:21:53.134Z,13.27
2018-09-29T19:24:22.375Z,10.47
2018-09-29T19:26:51.421Z,7.83
2018-09-29T19:29:20.408Z,8.67
2018-09-29T19:31:49.896Z,27.17
2018-09-29T19:34:19.071Z,25.07
2018-09-29T19:36:48.214Z,22.40
2018-09-29T19:39:17.108Z,10.60
2018-09-29T19:41:48.825Z,14.80
2018-09-29T19:44:18.004Z,17.77
2018-09-29T19:46:47.060Z,11.03
2018-09-29T19:49:16.543Z,47.00
2018-09-29T19:51:45.614Z,25.43
2018-09-29T19:54:14.637Z,12.43
2018-09-29T19:56:44.541Z,40.90
2018-09-29T19:59:14.029Z,43.53
2018-09-29T20:01:42.826Z,59.87
2018-09-29T20:04:11.838Z,55.23
2018-09-29T20:06:40.870Z,57.20
2018-09-29T20:09:11.304Z,56.57
2018-09-29T20:11:40.501Z,23.70
2018-09-29T20:14:09.616Z,33.37
2018-09-29T20:16:38.601Z,43.77
2018-09-29T20:19:08.231Z,31.07
2018-09-29T20:21:37.142Z,32.03
2018-09-29T20:24:06.257Z,21.00
2018-09-29T20:26:35.785Z,21.40
2018-09-29T20:29:04.672Z,33.50
2018-09-29T20:31:34.328Z,44.30
2018-09-29T20:34:03.348Z,32.03
2018-09-29T20:36:32.374Z,18.80
2018-09-29T20:39:01.309Z,52.33
2018-09-29T20:41:31.509Z,28.90
2018-09-29T20:44:00.381Z,12.80
2018-09-29T20:46:29.337Z,9.70
2018-09-29T20:48:58.236Z,26.93
2018-09-29T20:51:27.169Z,16.67
2018-09-29T20:53:57.046Z,33.40
2018-09-29T20:56:26.072Z,14.40
2018-09-29T20:58:54.956Z,9.87
2018-09-29T21:01:24.056Z,10.20
2018-09-29T21:03:53.846Z,9.43
2018-09-29T21:06:23.393Z,9.70
2018-09-29T21:08:52.578Z,10.90
2018-09-29T21:11:21.541Z,9.90
2018-09-29T21:13:50.321Z,12.03
2018-09-29T21:16:19.322Z,7.60
2018-09-29T21:18:48.535Z,13.60
2018-09-29T21:21:17.711Z,10.33
2018-09-29T21:23:46.630Z,13.03
2018-09-29T21:26:15.480Z,12.00
2018-09-29T21:28:44.521Z,11.30
2018-09-29T21:31:13.608Z,14.10
2018-09-29T21:33:42.438Z,9.10
2018-09-29T21:36:11.353Z,11.90
2018-09-29T21:38:40.386Z,14.13
2018-09-29T21:41:09.390Z,13.43
2018-09-29T21:43:38.295Z,11.97
2018-09-29T21:46:07.168Z,8.00
2018-09-29T21:48:36.383Z,11.83
2018-09-29T21:51:05.544Z,9.90
2018-09-29T21:53:34.505Z,7.67
2018-09-29T21:56:03.418Z,12.23
2018-09-29T21:58:32.784Z,9.50
2018-09-29T22:01:06.984Z,11.13
2018-09-29T22:03:35.773Z,11.43
2018-09-29T22:06:04.790Z,11.10
2018-09-29T22:08:33.741Z,10.30
2018-09-29T22:11:02.598Z,9.33
2018-09-29T22:13:32.411Z,9.10
2018-09-29T22:16:01.386Z,11.00
2018-09-29T22:18:30.303Z,9.67
2018-09-29T22:20:59.323Z,9.03
2018-09-29T22:23:28.098Z,11.20
2018-09-29T22:25:57.084Z,10.23
2018-09-29T22:28:35.953Z,8.90
2018-09-29T22:31:04.905Z,13.63
2018-09-29T22:33:33.884Z,11.60
2018-09-29T22:36:03.265Z,13.90
2018-09-29T22:38:32.199Z,13.65
2018-09-29T22:41:01.755Z,15.60
2018-09-29T22:43:30.742Z,12.20
2018-09-29T22:45:59.559Z,12.80
2018-09-29T22:48:28.442Z,12.70
2018-09-29T22:50:57.637Z,17.33
2018-09-29T22:53:26.574Z,14.97
2018-09-29T22:55:55.521Z,12.43
2018-09-29T22:58:24.395Z,15.00
2018-09-29T23:00:53.417Z,12.93
2018-09-29T23:03:22.905Z,10.58
2018-09-29T23:05:52.268Z,10.40
2018-09-29T23:08:21.164Z,10.28
2018-09-29T23:10:50.004Z,11.67
2018-09-29T23:13:18.831Z,9.83
2018-09-29T23:15:47.880Z,9.83
2018-09-29T23:18:17.104Z,14.07
2018-09-29T23:20:45.974Z,9.53
2018-09-29T23:23:14.827Z,12.47
2018-09-29T23:25:43.907Z,11.40
2018-09-29T23:28:13.062Z,11.70
2018-09-29T23:30:41.963Z,12.30
2018-09-29T23:33:10.819Z,12.03
2018-09-29T23:35:40.160Z,19.40
2018-09-29T23:38:09.841Z,10.35
2018-09-29T23:40:38.793Z,12.10
2018-09-29T23:43:07.978Z,10.98
2018-09-29T23:45:36.766Z,16.47
2018-09-29T23:48:05.601Z,11.57
2018-09-29T23:50:34.403Z,10.00
2018-09-29T23:53:03.361Z,18.02
2018-09-29T23:55:32.232Z,12.05
2018-09-29T23:58:01.026Z,11.05
